createdAt,value
2022-08-17T00:02:26.941Z,16.17
2022-08-17T00:05:33.781Z,17.55
2022-08-17T00:08:39.920Z,18.48
2022-08-17T00:12:40.576Z,17.77
2022-08-17T00:15:13.348Z,19.77
2022-08-17T00:19:00.352Z,21.15
2022-08-17T00:22:28.615Z,20.90
2022-08-17T00:25:13.184Z,18.55
2022-08-17T00:28:17.292Z,18.58
2022-08-17T00:31:22.757Z,18.55
2022-08-17T00:34:27.930Z,18.00
2022-08-17T00:37:31.006Z,17.95
2022-08-17T00:40:40.684Z,17.45
2022-08-17T00:43:50.803Z,20.58
2022-08-17T00:46:55.581Z,16.92
2022-08-17T00:49:58.552Z,16.70
2022-08-17T00:53:01.571Z,17.48
2022-08-17T00:56:09.434Z,16.30
2022-08-17T00:59:18.784Z,18.23
2022-08-17T01:02:24.347Z,18.42
2022-08-17T01:05:31.329Z,16.98
2022-08-17T01:08:36.892Z,17.00
2022-08-17T01:11:40.581Z,16.80
2022-08-17T01:14:44.002Z,19.45
2022-08-17T01:17:48.854Z,17.98
2022-08-17T01:20:54.973Z,18.13
2022-08-17T01:23:59.398Z,20.92
2022-08-17T01:27:03.521Z,20.60
2022-08-17T01:30:54.170Z,18.15
2022-08-17T01:33:39.118Z,20.63
2022-08-17T01:36:45.833Z,18.77
2022-08-17T01:39:54.869Z,17.23
2022-08-17T01:43:01.594Z,17.10
2022-08-17T01:46:04.981Z,17.48
2022-08-17T01:49:11.522Z,18.45
2022-08-17T01:52:14.796Z,17.65
2022-08-17T01:55:27.430Z,18.05
2022-08-17T01:58:30.917Z,19.58
2022-08-17T02:01:36.992Z,17.00
2022-08-17T02:04:39.995Z,18.77
2022-08-17T02:07:55.989Z,17.60
2022-08-17T02:11:11.382Z,20.23
2022-08-17T02:14:15.382Z,18.75
2022-08-17T02:17:18.870Z,16.80
2022-08-17T02:20:41.180Z,17.73
2022-08-17T02:23:48.616Z,18.33
2022-08-17T02:26:52.960Z,19.20
2022-08-17T02:29:56.392Z,18.75
2022-08-17T02:32:59.354Z,19.00
2022-08-17T02:36:09.881Z,20.45
2022-08-17T02:39:14.037Z,20.70
2022-08-17T02:42:18.470Z,20.38
2022-08-17T02:45:24.504Z,18.67
2022-08-17T02:48:29.698Z,21.67
2022-08-17T02:51:35.277Z,21.70
2022-08-17T02:54:40.104Z,20.40
2022-08-17T02:57:46.643Z,19.52
2022-08-17T03:00:50.083Z,18.85
2022-08-17T03:03:53.082Z,21.38
2022-08-17T03:06:56.211Z,23.25
2022-08-17T03:10:00.059Z,21.83
2022-08-17T03:13:04.842Z,21.02
2022-08-17T03:16:09.107Z,25.30
2022-08-17T03:19:12.531Z,24.52
2022-08-17T03:22:37.337Z,22.45
2022-08-17T03:25:42.763Z,21.77
2022-08-17T03:28:48.415Z,22.95
2022-08-17T03:31:52.317Z,20.60
2022-08-17T03:35:00.468Z,18.77
2022-08-17T03:38:05.689Z,18.52
2022-08-17T03:41:08.933Z,17.85
2022-08-17T03:44:13.206Z,17.45
2022-08-17T03:47:33.687Z,16.95
2022-08-17T03:50:54.151Z,18.25
2022-08-17T03:54:17.331Z,17.95
2022-08-17T03:57:20.589Z,18.38
2022-08-17T04:00:25.306Z,20.48
2022-08-17T04:03:28.631Z,19.52
2022-08-17T04:06:31.647Z,19.85
2022-08-17T04:09:34.917Z,21.30
2022-08-17T04:12:48.460Z,21.38
2022-08-17T04:15:53.599Z,20.23
2022-08-17T04:18:56.617Z,20.38
2022-08-17T04:21:59.607Z,19.73
2022-08-17T04:25:07.599Z,20.70
2022-08-17T04:28:16.029Z,22.17
2022-08-17T04:31:20.777Z,19.95
2022-08-17T04:34:25.071Z,20.98
2022-08-17T04:37:28.051Z,19.95
2022-08-17T04:40:48.825Z,20.63
2022-08-17T04:43:56.002Z,21.73
2022-08-17T04:47:01.327Z,21.75
2022-08-17T04:50:04.708Z,22.52
2022-08-17T04:53:07.768Z,24.50
2022-08-17T04:56:15.991Z,25.85
2022-08-17T04:59:22.765Z,25.65
2022-08-17T05:02:27.092Z,23.17
2022-08-17T05:05:36.263Z,21.45
2022-08-17T05:08:39.739Z,20.10
2022-08-17T05:11:45.053Z,19.38
2022-08-17T05:14:48.131Z,18.63
2022-08-17T05:17:52.451Z,16.52
2022-08-17T05:20:55.792Z,16.55
2022-08-17T05:23:58.987Z,19.20
2022-08-17T05:27:06.652Z,20.05
2022-08-17T05:30:10.895Z,22.58
2022-08-17T05:33:17.963Z,19.77
2022-08-17T05:36:43.191Z,19.98
2022-08-17T05:39:44.278Z,21.98
2022-08-17T05:42:47.386Z,19.90
2022-08-17T05:46:00.072Z,20.23
2022-08-17T05:49:09.060Z,18.70
2022-08-17T05:52:33.228Z,20.73
2022-08-17T05:55:46.915Z,23.70
2022-08-17T05:59:02.143Z,19.73
2022-08-17T06:02:15.637Z,18.92
2022-08-17T06:05:38.031Z,21.08
2022-08-17T06:08:48.989Z,21.65
2022-08-17T06:12:01.059Z,17.30
2022-08-17T06:15:24.814Z,17.85
2022-08-17T06:18:36.479Z,17.90
2022-08-17T06:21:45.081Z,15.38
2022-08-17T06:24:56.691Z,18.02
2022-08-17T06:28:05.853Z,15.35
2022-08-17T06:31:17.424Z,14.95
2022-08-17T06:34:20.850Z,15.07
2022-08-17T06:37:59.316Z,14.75
2022-08-17T06:41:15.452Z,16.38
2022-08-17T06:44:43.356Z,12.25
2022-08-17T06:47:53.572Z,12.68
2022-08-17T06:51:02.359Z,12.60
2022-08-17T06:54:13.809Z,11.35
2022-08-17T06:57:25.117Z,14.07
2022-08-17T07:00:34.460Z,12.13
2022-08-17T07:03:45.208Z,11.90
2022-08-17T07:06:53.725Z,12.68
2022-08-17T07:10:01.041Z,12.45
2022-08-17T07:13:21.470Z,12.65
2022-08-17T07:16:31.465Z,9.73
2022-08-17T07:19:38.125Z,10.57
2022-08-17T07:22:59.853Z,10.82
2022-08-17T07:26:07.328Z,11.30
2022-08-17T07:29:14.980Z,9.95
2022-08-17T07:32:22.783Z,10.25
2022-08-17T07:35:40.820Z,10.52
2022-08-17T07:38:57.501Z,9.98
2022-08-17T07:42:05.979Z,11.48
2022-08-17T07:45:26.886Z,15.23
2022-08-17T07:48:29.923Z,11.40
2022-08-17T07:51:38.044Z,11.38
2022-08-17T07:54:43.734Z,9.57
2022-08-17T07:57:57.833Z,9.63
2022-08-17T08:01:07.957Z,8.95
2022-08-17T08:04:59.074Z,8.82
2022-08-17T08:07:55.403Z,8.48
2022-08-17T08:11:07.663Z,10.10
2022-08-17T08:14:28.667Z,7.90
2022-08-17T08:17:36.688Z,8.90
2022-08-17T08:20:52.037Z,7.75
2022-08-17T08:24:04.250Z,8.23
2022-08-17T08:27:19.497Z,8.10
2022-08-17T08:30:24.119Z,7.30
2022-08-17T08:33:44.937Z,6.72
2022-08-17T08:37:16.530Z,6.88
2022-08-17T08:40:44.197Z,5.97
2022-08-17T08:44:00.780Z,5.93
2022-08-17T08:47:18.159Z,6.75
2022-08-17T08:50:38.208Z,7.35
2022-08-17T08:53:51.950Z,6.10
2022-08-17T08:57:24.329Z,7.03
2022-08-17T09:00:35.725Z,5.63
2022-08-17T09:04:19.903Z,5.50
2022-08-17T09:07:39.759Z,5.53
2022-08-17T09:10:56.864Z,5.20
2022-08-17T09:14:21.495Z,5.18
2022-08-17T09:17:36.507Z,5.22
2022-08-17T09:20:50.191Z,5.05
2022-08-17T09:24:04.819Z,4.68
2022-08-17T09:27:13.347Z,4.70
2022-08-17T09:30:16.780Z,4.85
2022-08-17T09:33:26.261Z,7.72
2022-08-17T09:36:34.530Z,4.53
2022-08-17T09:39:44.337Z,4.50
2022-08-17T09:42:51.588Z,4.47
2022-08-17T09:46:00.187Z,4.18
2022-08-17T09:49:09.660Z,4.80
2022-08-17T09:52:21.754Z,4.55
2022-08-17T09:55:33.750Z,4.00
2022-08-17T09:59:04.413Z,4.80
2022-08-17T10:02:36.202Z,3.97
2022-08-17T10:05:48.006Z,3.65
2022-08-17T10:09:06.507Z,4.13
2022-08-17T10:12:29.853Z,4.60
2022-08-17T10:15:48.205Z,3.30
2022-08-17T10:19:14.580Z,3.70
2022-08-17T10:22:44.622Z,3.60
2022-08-17T10:26:13.027Z,3.30
2022-08-17T10:29:22.955Z,3.67
2022-08-17T10:32:33.722Z,3.58
2022-08-17T10:35:46.438Z,3.10
2022-08-17T10:39:00.410Z,4.03
2022-08-17T10:42:30.406Z,4.60
2022-08-17T10:45:48.302Z,3.60
2022-08-17T10:49:34.059Z,3.60
2022-08-17T10:52:49.917Z,3.83
2022-08-17T10:56:23.143Z,3.72
2022-08-17T10:59:53.963Z,3.90
2022-08-17T11:02:58.115Z,3.95
2022-08-17T11:06:14.309Z,3.65
2022-08-17T11:09:35.444Z,3.78
2022-08-17T11:12:48.960Z,3.88
2022-08-17T11:16:08.792Z,3.80
2022-08-17T11:19:38.246Z,3.47
2022-08-17T11:23:14.726Z,3.83
2022-08-17T11:26:26.839Z,4.10
2022-08-17T11:29:37.354Z,4.20
2022-08-17T11:32:47.773Z,5.07
2022-08-17T11:35:56.661Z,4.25
2022-08-17T11:39:06.862Z,4.78
2022-08-17T11:42:32.523Z,4.70
2022-08-17T11:45:56.001Z,4.13
2022-08-17T11:49:28.619Z,4.47
2022-08-17T11:52:42.014Z,4.05
2022-08-17T11:56:09.535Z,3.97
2022-08-17T12:00:10.602Z,4.05
2022-08-17T12:03:26.388Z,4.50
2022-08-17T12:06:45.388Z,4.32
2022-08-17T12:09:51.814Z,3.60
2022-08-17T12:12:55.625Z,4.93
2022-08-17T12:15:59.982Z,3.78
2022-08-17T12:19:05.207Z,4.05
2022-08-17T12:22:18.850Z,4.75
2022-08-17T12:25:32.791Z,3.78
2022-08-17T12:28:39.592Z,3.88
2022-08-17T12:31:47.137Z,4.32
2022-08-17T12:34:51.903Z,4.28
2022-08-17T12:37:58.091Z,3.97
2022-08-17T12:41:24.284Z,3.58
2022-08-17T12:44:30.519Z,4.43
2022-08-17T12:47:38.360Z,5.45
2022-08-17T12:50:44.592Z,3.88
2022-08-17T12:53:55.871Z,4.47
2022-08-17T12:57:03.006Z,4.18
2022-08-17T13:00:16.227Z,3.95
2022-08-17T13:03:23.525Z,3.67
2022-08-17T13:06:33.059Z,3.38
2022-08-17T13:09:40.756Z,6.00
2022-08-17T13:12:44.001Z,5.18
2022-08-17T13:15:55.160Z,3.70
2022-08-17T13:19:10.955Z,3.28
2022-08-17T13:22:13.895Z,4.78
2022-08-17T13:25:18.496Z,3.95
2022-08-17T13:28:30.717Z,3.60
2022-08-17T13:31:52.782Z,4.00
2022-08-17T13:35:14.281Z,3.83
2022-08-17T13:38:45.807Z,4.32
2022-08-17T13:41:52.451Z,4.05
2022-08-17T13:44:55.394Z,5.18
2022-08-17T13:48:08.370Z,3.83
2022-08-17T13:51:24.157Z,3.55
2022-08-17T13:54:31.035Z,2.97
2022-08-17T13:57:38.422Z,3.70
2022-08-17T14:00:41.588Z,3.13
2022-08-17T14:03:44.553Z,3.58
2022-08-17T14:06:55.187Z,3.60
2022-08-17T14:10:02.037Z,3.53
2022-08-17T14:13:08.064Z,3.38
2022-08-17T14:16:10.991Z,4.00
2022-08-17T14:19:15.323Z,4.03
2022-08-17T14:22:23.574Z,3.47
2022-08-17T14:25:29.907Z,3.95
2022-08-17T14:28:36.345Z,4.60
2022-08-17T14:31:39.746Z,3.83
2022-08-17T14:34:42.831Z,3.85
2022-08-17T14:37:47.994Z,4.40
2022-08-17T14:40:51.204Z,4.47
2022-08-17T14:43:55.475Z,6.43
2022-08-17T14:46:58.416Z,5.97
2022-08-17T14:50:02.127Z,4.65
2022-08-17T14:53:06.313Z,4.43
2022-08-17T14:56:09.269Z,3.90
2022-08-17T14:59:13.636Z,5.40
2022-08-17T15:02:16.942Z,4.35
2022-08-17T15:05:22.018Z,4.40
2022-08-17T15:08:25.081Z,4.30
2022-08-17T15:11:28.051Z,4.43
2022-08-17T15:14:33.359Z,3.97
2022-08-17T15:17:44.757Z,4.50
2022-08-17T15:20:50.453Z,4.97
2022-08-17T15:23:53.412Z,4.15
2022-08-17T15:26:56.388Z,3.85
2022-08-17T15:30:00.671Z,4.82
2022-08-17T15:33:04.341Z,6.80
2022-08-17T15:36:09.279Z,4.15
2022-08-17T15:39:12.241Z,4.10
2022-08-17T15:42:16.116Z,4.47
2022-08-17T15:45:26.480Z,3.80
2022-08-17T15:48:41.934Z,6.00
2022-08-17T15:51:45.241Z,4.15
2022-08-17T15:54:53.070Z,4.78
2022-08-17T15:57:56.240Z,4.35
2022-08-17T16:01:14.370Z,4.05
2022-08-17T16:04:29.791Z,3.85
2022-08-17T16:07:34.335Z,4.28
2022-08-17T16:10:37.468Z,3.92
2022-08-17T16:13:41.547Z,4.07
2022-08-17T16:16:45.858Z,4.88
2022-08-17T16:19:48.987Z,5.15
2022-08-17T16:22:52.088Z,4.40
2022-08-17T16:25:55.254Z,4.95
2022-08-17T16:29:00.917Z,4.38
2022-08-17T16:32:12.804Z,5.13
2022-08-17T16:35:18.116Z,4.28
2022-08-17T16:38:22.198Z,4.85
2022-08-17T16:41:42.635Z,5.68
2022-08-17T16:44:45.566Z,5.55
2022-08-17T16:47:50.313Z,4.60
2022-08-17T16:51:03.238Z,4.78
2022-08-17T16:54:08.625Z,5.03
2022-08-17T16:57:12.376Z,4.88
2022-08-17T17:00:19.167Z,5.22
2022-08-17T17:03:27.172Z,5.55
2022-08-17T17:06:40.798Z,5.47
2022-08-17T17:09:48.533Z,5.97
2022-08-17T17:13:02.594Z,5.65
2022-08-17T17:16:20.788Z,7.57
2022-08-17T17:19:35.140Z,6.20
2022-08-17T17:22:48.019Z,5.97
2022-08-17T17:26:03.115Z,6.50
2022-08-17T17:29:35.801Z,5.60
2022-08-17T17:32:55.763Z,6.47
2022-08-17T17:36:03.053Z,6.10
2022-08-17T17:39:11.476Z,6.00
2022-08-17T17:42:20.473Z,6.30
2022-08-17T17:45:26.639Z,7.90
2022-08-17T17:48:30.855Z,6.63
2022-08-17T17:52:06.315Z,8.00
2022-08-17T17:55:24.944Z,7.40
2022-08-17T17:58:40.223Z,7.00
2022-08-17T18:02:32.229Z,6.15
2022-08-17T18:06:38.317Z,8.88
2022-08-17T18:10:43.447Z,11.90
2022-08-17T18:14:43.082Z,9.15
2022-08-17T18:19:00.870Z,8.10
2022-08-17T18:22:16.181Z,7.80
2022-08-17T18:25:44.706Z,9.07
2022-08-17T18:28:52.897Z,8.98
2022-08-17T18:32:31.188Z,7.00
2022-08-17T18:35:35.172Z,6.60
2022-08-17T18:38:41.928Z,6.93
2022-08-17T18:41:48.872Z,7.07
2022-08-17T18:44:55.100Z,7.35
2022-08-17T18:47:58.637Z,10.32
2022-08-17T18:51:08.631Z,10.68
2022-08-17T18:54:22.666Z,10.02
2022-08-17T18:57:32.736Z,9.80
2022-08-17T19:00:40.428Z,9.00
2022-08-17T19:03:46.452Z,8.27
2022-08-17T19:07:27.432Z,8.82
2022-08-17T19:10:47.037Z,7.53
2022-08-17T19:13:58.274Z,8.10
2022-08-17T19:17:06.534Z,8.30
2022-08-17T19:20:17.763Z,7.38
2022-08-17T19:23:26.694Z,7.30
2022-08-17T19:26:54.478Z,8.93
2022-08-17T19:30:07.841Z,7.68
2022-08-17T19:33:11.505Z,8.20
2022-08-17T19:36:35.362Z,8.95
2022-08-17T19:39:51.657Z,6.53
2022-08-17T19:43:07.509Z,7.43
2022-08-17T19:46:26.106Z,6.97
2022-08-17T19:49:41.595Z,7.03
2022-08-17T19:52:52.927Z,6.55
2022-08-17T19:56:04.249Z,7.30
2022-08-17T19:59:17.348Z,7.00
2022-08-17T20:02:49.045Z,7.30
2022-08-17T20:06:13.794Z,7.53
2022-08-17T20:09:26.164Z,7.25
2022-08-17T20:12:39.450Z,8.45
2022-08-17T20:15:43.800Z,7.45
2022-08-17T20:18:59.747Z,7.68
2022-08-17T20:22:11.014Z,6.88
2022-08-17T20:25:30.403Z,7.97
2022-08-17T20:28:36.235Z,7.18
2022-08-17T20:31:47.075Z,7.40
2022-08-17T20:35:21.251Z,7.90
2022-08-17T20:38:42.867Z,7.88
2022-08-17T20:42:09.911Z,8.50
2022-08-17T20:46:21.162Z,8.88
2022-08-17T20:49:30.396Z,8.32
2022-08-17T20:52:53.074Z,8.30
2022-08-17T20:55:57.082Z,7.68
2022-08-17T20:59:00.953Z,7.53
2022-08-17T21:02:18.109Z,7.85
2022-08-17T21:05:59.705Z,8.32
2022-08-17T21:09:30.030Z,7.78
2022-08-17T21:12:44.614Z,8.13
2022-08-17T21:15:52.978Z,8.07
2022-08-17T21:19:17.022Z,9.13
2022-08-17T21:22:35.286Z,9.07
2022-08-17T21:26:02.383Z,8.40
2022-08-17T21:29:29.702Z,8.02
2022-08-17T21:32:40.419Z,8.88
2022-08-17T21:35:52.914Z,9.68
2022-08-17T21:39:08.794Z,8.27
2022-08-17T21:42:13.973Z,8.85
2022-08-17T21:45:26.182Z,8.20
2022-08-17T21:48:32.323Z,7.90
2022-08-17T21:51:38.942Z,8.07
2022-08-17T21:54:49.954Z,7.75
2022-08-17T21:58:14.958Z,8.30
2022-08-17T22:01:24.750Z,8.10
2022-08-17T22:04:31.555Z,10.82
2022-08-17T22:07:39.416Z,8.40
2022-08-17T22:10:45.813Z,9.25
2022-08-17T22:13:50.091Z,7.95
2022-08-17T22:17:17.209Z,8.73
2022-08-17T22:20:21.947Z,8.80
2022-08-17T22:23:47.816Z,8.82
2022-08-17T22:27:06.855Z,8.30
2022-08-17T22:30:27.417Z,9.32
2022-08-17T22:33:39.634Z,8.63
2022-08-17T22:36:43.506Z,9.30
2022-08-17T22:39:46.544Z,9.77
2022-08-17T22:42:49.713Z,10.90
2022-08-17T22:45:59.439Z,8.00
2022-08-17T22:49:02.478Z,9.80
2022-08-17T22:52:21.987Z,8.15
2022-08-17T22:55:58.937Z,9.48
2022-08-17T22:59:20.050Z,9.35
2022-08-17T23:02:27.693Z,9.05
2022-08-17T23:05:31.336Z,8.98
2022-08-17T23:08:36.766Z,9.18
2022-08-17T23:11:49.219Z,8.90
2022-08-17T23:15:00.595Z,10.20
2022-08-17T23:18:05.563Z,9.75
2022-08-17T23:21:08.612Z,10.32
2022-08-17T23:24:22.811Z,10.43
2022-08-17T23:27:26.417Z,9.98
2022-08-17T23:30:30.270Z,10.32
2022-08-17T23:33:35.488Z,8.73
2022-08-17T23:36:38.967Z,10.90
2022-08-17T23:39:42.375Z,10.73
2022-08-17T23:42:46.467Z,10.32
2022-08-17T23:45:50.326Z,9.35
2022-08-17T23:48:54.915Z,9.95
2022-08-17T23:51:59.391Z,10.40
2022-08-17T23:55:02.363Z,9.60
2022-08-17T23:58:06.067Z,10.88
